Hlavní strana
METAR-TAF:

METAR-TAF

Letiště :

Ingolstadt, Německo

zeměpisná šířka: 48-43N, zeměpisná délka: 011-32E, výška: 367 m

Aktuální stav počasí

Zpráva byla vytvořena před 39 minutami, v 07:20 UTC
Východojihovýchodní vítr 3 kt
Teplota 16°C
Vlhkost vzduchu 88%
Tlak 1021 hPa
Viditelnost: 5000 m
Skoro jasno ve výšce 700 ft
Polojasno ve výšce 27000 ft
kouřmo

METAR: ETSI 260720Z 11003KT 5000 BR FEW007 SCT270 16/14 Q1021 WHT

Čas: 09:59 (07:59 UTC)


TAF: chybějící

Stav a předpovědi počasí z více než 4 000 letišť (zprávy METAR a TAF).

Červené a žluté tečky na mapě představují dostupné meteorologické stanice.

Když kurzor umístíte na tečku, zobrazí se název stanice.

Pak kliknutím zobrazíte stav a předpověď počasí.

Chcete-li změnit mapu, kliknutím na zelené tlačítko se znaménkem +mapu přiblížíte, kliknutím na zelené tlačítko se znaménkem – mapu oddálíte a kliknutím na zelené šipky přejdete na sousední mapy.


METAR-TAF: